CYSP

Marathon Airport

Marathon, Ontario, Canada
METAR CYSP 202100Z 06015G21KT 10SM SCT006 OVC008 15/13 A3003 RMK SC4SC4 BR LAST STFD OBS/NEXT 211200UTC PRESFR SLP174 DENSITY ALT 1200FT
Observed Flight Rules
Aug-20 @ 21:00 UTC (17 hours ago) Instrument Flight Rules
Wind Visibility Clouds
60° at 15 knots
 Gusting to 21 knots
10 miles
  • Scattered at 600' AGL
  • Overcast at 800' AGL
Temperatures Readings
Current 15°C / 59°F
Dewpoint 13°C / 55°F
Humidity 88%
Altimeter 30.03" Hg
Pressure 1017.4 hPa
Elevation 315
METAR CYSP 202100Z 06015G21KT 10SM SCT006 OVC008 15/13 A3003 RMK SC4SC4 BR LAST STFD OBS/NEXT 211200UTC PRESFR SLP174 DENSITY ALT 1200FT
Observed Flight Rules
Aug-20 @ 21:00 UTC
(17 hours ago)
IFR
Wind Visibility
60° at 15 knots
 Gusting to 21 knots
10 miles
Clouds
  • Scattered at 600' AGL
  • Overcast at 800' AGL
Temperature Dewpoint
15°C / 59°F 13°C / 55°F
Humidity Altimeter Pressure
88% 30.03" Hg 1017.4 hPa